sensor_id;sensor_type;location;lat;lon;timestamp;pressure;altitude;pressure_sealevel;temperature;humidity
55410;BME280;41279;43.546;16.426;2022-12-18T00:01:03;52724.66;;;-146.77;85.39
55410;BME280;41279;43.546;16.426;2022-12-18T00:03:35;52704.63;;;-146.77;84.66
55410;BME280;41279;43.546;16.426;2022-12-18T00:06:01;52720.66;;;-146.77;84.16
55410;BME280;41279;43.546;16.426;2022-12-18T00:08:27;52692.63;;;-146.77;87.08
55410;BME280;41279;43.546;16.426;2022-12-18T00:10:53;52712.63;;;-146.77;87.39
55410;BME280;41279;43.546;16.426;2022-12-18T00:13:19;52710.63;;;-146.77;86.93
55410;BME280;41279;43.546;16.426;2022-12-18T00:15:44;52702.63;;;-146.77;89.41
55410;BME280;41279;43.546;16.426;2022-12-18T00:18:10;52702.63;;;-146.77;88.82
55410;BME280;41279;43.546;16.426;2022-12-18T00:20:39;52694.63;;;-146.77;88.87
55410;BME280;41279;43.546;16.426;2022-12-18T00:23:06;52708.63;;;-146.77;88.91
55410;BME280;41279;43.546;16.426;2022-12-18T00:25:36;52770.69;;;-146.77;90.41
55410;BME280;41279;43.546;16.426;2022-12-18T00:28:04;52690.59;;;-146.77;91.12
55410;BME280;41279;43.546;16.426;2022-12-18T00:30:30;52718.63;;;-146.77;88.82
55410;BME280;41279;43.546;16.426;2022-12-18T00:32:55;52714.63;;;-146.77;85.57
55410;BME280;41279;43.546;16.426;2022-12-18T00:35:21;52708.63;;;-146.77;83.54
55410;BME280;41279;43.546;16.426;2022-12-18T00:37:47;52694.63;;;-146.77;86.19
55410;BME280;41279;43.546;16.426;2022-12-18T00:40:12;52670.59;;;-146.77;89.05
55410;BME280;41279;43.546;16.426;2022-12-18T00:42:37;52724.66;;;-146.77;85.54
55410;BME280;41279;43.546;16.426;2022-12-18T00:45:28;52732.66;;;-146.77;85.38
55410;BME280;41279;43.546;16.426;2022-12-18T00:47:55;52710.63;;;-146.77;83.31
55410;BME280;41279;43.546;16.426;2022-12-18T00:50:21;52670.59;;;-146.77;84.98
55410;BME280;41279;43.546;16.426;2022-12-18T00:52:47;52700.63;;;-146.77;90.84
55410;BME280;41279;43.546;16.426;2022-12-18T00:55:12;52732.66;;;-146.77;87.56
55410;BME280;41279;43.546;16.426;2022-12-18T00:57:38;52704.63;;;-146.77;84.82
55410;BME280;41279;43.546;16.426;2022-12-18T01:00:05;52702.63;;;-146.77;83.92
55410;BME280;41279;43.546;16.426;2022-12-18T01:02:31;52732.66;;;-146.77;83.65
55410;BME280;41279;43.546;16.426;2022-12-18T01:04:57;52682.59;;;-146.77;84.37
55410;BME280;41279;43.546;16.426;2022-12-18T01:07:28;52726.66;;;-146.77;89.61
55410;BME280;41279;43.546;16.426;2022-12-18T01:09:54;52748.66;;;-146.77;81.21
55410;BME280;41279;43.546;16.426;2022-12-18T01:12:19;52742.66;;;-146.77;80.89
55410;BME280;41279;43.546;16.426;2022-12-18T01:14:44;52706.63;;;-146.77;85.07
55410;BME280;41279;43.546;16.426;2022-12-18T01:17:10;52704.63;;;-146.77;85.73
55410;BME280;41279;43.546;16.426;2022-12-18T01:19:35;52748.66;;;-146.77;84.01
55410;BME280;41279;43.546;16.426;2022-12-18T01:22:00;52744.66;;;-146.77;86.77
55410;BME280;41279;43.546;16.426;2022-12-18T01:24:26;52728.66;;;-146.77;84.59
55410;BME280;41279;43.546;16.426;2022-12-18T01:26:51;52712.63;;;-146.77;85.03
55410;BME280;41279;43.546;16.426;2022-12-18T01:29:16;52834.78;;;-146.77;80.33
55410;BME280;41279;43.546;16.426;2022-12-18T01:31:42;52722.66;;;-146.77;84.00
55410;BME280;41279;43.546;16.426;2022-12-18T01:34:08;52740.66;;;-146.77;86.65
55410;BME280;41279;43.546;16.426;2022-12-18T01:36:36;52714.63;;;-146.77;82.98
55410;BME280;41279;43.546;16.426;2022-12-18T01:39:07;52680.59;;;-146.77;81.62
55410;BME280;41279;43.546;16.426;2022-12-18T01:41:34;52730.66;;;-146.77;79.99
55410;BME280;41279;43.546;16.426;2022-12-18T01:47:21;52682.59;;;-146.77;75.63
55410;BME280;41279;43.546;16.426;2022-12-18T01:49:47;52716.63;;;-146.77;70.38
55410;BME280;41279;43.546;16.426;2022-12-18T01:52:13;52776.69;;;-146.77;67.99
55410;BME280;41279;43.546;16.426;2022-12-18T01:54:39;52714.63;;;-146.77;70.49
55410;BME280;41279;43.546;16.426;2022-12-18T01:57:04;52654.56;;;-146.77;73.33
55410;BME280;41279;43.546;16.426;2022-12-18T01:59:31;52712.63;;;-146.77;72.90
55410;BME280;41279;43.546;16.426;2022-12-18T02:01:58;52640.56;;;-146.77;69.00
55410;BME280;41279;43.546;16.426;2022-12-18T02:04:26;52690.59;;;-146.77;68.08
55410;BME280;41279;43.546;16.426;2022-12-18T02:07:24;52744.66;;;-146.77;64.01
55410;BME280;41279;43.546;16.426;2022-12-18T02:10:00;52662.56;;;-146.77;67.09
55410;BME280;41279;43.546;16.426;2022-12-18T02:15:09;52726.66;;;-146.77;69.19
55410;BME280;41279;43.546;16.426;2022-12-18T02:17:46;52672.59;;;-146.77;69.89
55410;BME280;41279;43.546;16.426;2022-12-18T02:23:10;52712.63;;;-146.77;68.08
55410;BME280;41279;43.546;16.426;2022-12-18T02:28:09;52752.69;;;-146.77;63.11
55410;BME280;41279;43.546;16.426;2022-12-18T02:30:37;52710.63;;;-146.77;68.92
55410;BME280;41279;43.546;16.426;2022-12-18T02:33:04;52672.59;;;-146.77;67.88
55410;BME280;41279;43.546;16.426;2022-12-18T02:35:32;52668.59;;;-146.77;68.36
55410;BME280;41279;43.546;16.426;2022-12-18T02:37:59;52684.59;;;-146.77;73.23
55410;BME280;41279;43.546;16.426;2022-12-18T02:40:27;52680.59;;;-146.77;69.38
55410;BME280;41279;43.546;16.426;2022-12-18T02:42:53;52692.63;;;-146.77;65.68
55410;BME280;41279;43.546;16.426;2022-12-18T02:45:19;52692.63;;;-146.77;65.06
55410;BME280;41279;43.546;16.426;2022-12-18T02:47:48;52710.63;;;-146.77;65.87
55410;BME280;41279;43.546;16.426;2022-12-18T02:50:35;52752.69;;;-146.77;64.61
55410;BME280;41279;43.546;16.426;2022-12-18T02:53:17;52710.63;;;-146.77;65.92
55410;BME280;41279;43.546;16.426;2022-12-18T03:01:13;52662.56;;;-146.77;65.65
55410;BME280;41279;43.546;16.426;2022-12-18T03:03:55;52646.56;;;-146.77;71.03
55410;BME280;41279;43.546;16.426;2022-12-18T03:06:26;52648.56;;;-146.77;71.19
55410;BME280;41279;43.546;16.426;2022-12-18T03:08:57;52596.50;;;-146.77;70.05
55410;BME280;41279;43.546;16.426;2022-12-18T03:11:24;52634.53;;;-146.77;68.51
55410;BME280;41279;43.546;16.426;2022-12-18T03:14:11;52638.56;;;-146.77;70.27
55410;BME280;41279;43.546;16.426;2022-12-18T03:16:39;52642.56;;;-146.77;68.30
55410;BME280;41279;43.546;16.426;2022-12-18T03:19:19;52634.53;;;-146.77;69.24
55410;BME280;41279;43.546;16.426;2022-12-18T03:21:47;52634.53;;;-146.77;68.29
55410;BME280;41279;43.546;16.426;2022-12-18T03:24:15;52624.53;;;-146.77;69.14
55410;BME280;41279;43.546;16.426;2022-12-18T03:26:44;52620.53;;;-146.77;71.49
55410;BME280;41279;43.546;16.426;2022-12-18T03:29:22;52594.50;;;-146.77;71.63
55410;BME280;41279;43.546;16.426;2022-12-18T03:31:55;52612.53;;;-146.77;69.62
55410;BME280;41279;43.546;16.426;2022-12-18T03:34:27;52666.59;;;-146.77;67.80
55410;BME280;41279;43.546;16.426;2022-12-18T03:36:54;52646.56;;;-146.77;68.35
55410;BME280;41279;43.546;16.426;2022-12-18T03:39:20;52602.50;;;-146.77;69.99
55410;BME280;41279;43.546;16.426;2022-12-18T03:42:14;52628.53;;;-146.77;67.56
55410;BME280;41279;43.546;16.426;2022-12-18T03:52:58;52706.63;;;-146.77;64.05
55410;BME280;41279;43.546;16.426;2022-12-18T03:55:27;52710.63;;;-146.77;62.89
55410;BME280;41279;43.546;16.426;2022-12-18T03:57:56;52622.53;;;-146.77;63.88
55410;BME280;41279;43.546;16.426;2022-12-18T04:00:23;52618.53;;;-146.77;65.03
55410;BME280;41279;43.546;16.426;2022-12-18T04:02:51;52686.59;;;-146.77;63.33
55410;BME280;41279;43.546;16.426;2022-12-18T04:05:19;52624.53;;;-146.77;65.03
55410;BME280;41279;43.546;16.426;2022-12-18T04:07:47;52606.53;;;-146.77;67.58
55410;BME280;41279;43.546;16.426;2022-12-18T04:10:14;52670.59;;;-146.77;64.73
55410;BME280;41279;43.546;16.426;2022-12-18T04:12:40;52586.50;;;-146.77;71.22
55410;BME280;41279;43.546;16.426;2022-12-18T04:15:06;52618.53;;;-146.77;70.01
55410;BME280;41279;43.546;16.426;2022-12-18T04:17:32;52578.50;;;-146.77;70.37
55410;BME280;41279;43.546;16.426;2022-12-18T04:19:57;52598.50;;;-146.77;69.60
55410;BME280;41279;43.546;16.426;2022-12-18T04:22:22;52590.50;;;-146.77;68.18
55410;BME280;41279;43.546;16.426;2022-12-18T04:24:48;52626.53;;;-146.77;70.88
55410;BME280;41279;43.546;16.426;2022-12-18T04:27:13;52656.56;;;-146.77;66.63
55410;BME280;41279;43.546;16.426;2022-12-18T04:29:39;52606.53;;;-146.77;69.95
55410;BME280;41279;43.546;16.426;2022-12-18T04:32:04;52580.50;;;-146.77;69.19
55410;BME280;41279;43.546;16.426;2022-12-18T04:34:29;52586.50;;;-146.77;68.57
55410;BME280;41279;43.546;16.426;2022-12-18T04:36:55;52526.44;;;-146.77;72.98
55410;BME280;41279;43.546;16.426;2022-12-18T04:39:21;52584.50;;;-146.77;70.08
55410;BME280;41279;43.546;16.426;2022-12-18T04:41:46;52586.50;;;-146.77;70.65
55410;BME280;41279;43.546;16.426;2022-12-18T04:44:11;52606.53;;;-146.77;68.10
55410;BME280;41279;43.546;16.426;2022-12-18T04:46:37;52624.53;;;-146.77;65.58
55410;BME280;41279;43.546;16.426;2022-12-18T04:49:02;52618.53;;;-146.77;64.93
55410;BME280;41279;43.546;16.426;2022-12-18T04:51:27;52680.59;;;-146.77;61.61
55410;BME280;41279;43.546;16.426;2022-12-18T04:53:53;52640.56;;;-146.77;61.75
55410;BME280;41279;43.546;16.426;2022-12-18T04:56:19;52646.56;;;-146.77;59.79
55410;BME280;41279;43.546;16.426;2022-12-18T04:58:45;52656.56;;;-146.77;60.71
55410;BME280;41279;43.546;16.426;2022-12-18T05:01:12;52646.56;;;-146.77;65.47
55410;BME280;41279;43.546;16.426;2022-12-18T05:03:37;52664.59;;;-146.77;65.00
55410;BME280;41279;43.546;16.426;2022-12-18T05:06:04;52614.53;;;-146.77;63.52
55410;BME280;41279;43.546;16.426;2022-12-18T05:08:30;52664.59;;;-146.77;62.27
55410;BME280;41279;43.546;16.426;2022-12-18T05:11:04;52668.59;;;-146.77;60.93
55410;BME280;41279;43.546;16.426;2022-12-18T05:13:31;52690.59;;;-146.77;59.60
55410;BME280;41279;43.546;16.426;2022-12-18T05:15:56;52700.63;;;-146.77;59.65
55410;BME280;41279;43.546;16.426;2022-12-18T05:18:23;52698.63;;;-146.77;60.68
55410;BME280;41279;43.546;16.426;2022-12-18T05:20:52;52614.53;;;-146.77;63.03
55410;BME280;41279;43.546;16.426;2022-12-18T05:23:18;52586.50;;;-146.77;64.31
55410;BME280;41279;43.546;16.426;2022-12-18T05:26:01;52614.53;;;-146.77;64.44
55410;BME280;41279;43.546;16.426;2022-12-18T05:28:29;52690.59;;;-146.77;60.24
55410;BME280;41279;43.546;16.426;2022-12-18T05:30:58;52678.59;;;-146.77;59.98
55410;BME280;41279;43.546;16.426;2022-12-18T05:33:26;52640.56;;;-146.77;61.47
55410;BME280;41279;43.546;16.426;2022-12-18T05:35:55;52602.50;;;-146.77;63.61
55410;BME280;41279;43.546;16.426;2022-12-18T05:38:23;52622.53;;;-146.77;61.36
55410;BME280;41279;43.546;16.426;2022-12-18T05:40:50;52604.50;;;-146.77;63.01
55410;BME280;41279;43.546;16.426;2022-12-18T05:43:16;52616.53;;;-146.77;62.42
55410;BME280;41279;43.546;16.426;2022-12-18T05:45:42;52654.56;;;-146.77;61.27
55410;BME280;41279;43.546;16.426;2022-12-18T05:48:16;52670.59;;;-146.77;59.16
55410;BME280;41279;43.546;16.426;2022-12-18T05:50:43;52700.63;;;-146.77;59.26
55410;BME280;41279;43.546;16.426;2022-12-18T05:53:10;52678.59;;;-146.77;59.59
55410;BME280;41279;43.546;16.426;2022-12-18T05:55:37;52646.56;;;-146.77;60.00
55410;BME280;41279;43.546;16.426;2022-12-18T05:58:04;52620.53;;;-146.77;67.55
55410;BME280;41279;43.546;16.426;2022-12-18T06:00:30;52600.50;;;-146.77;66.00
55410;BME280;41279;43.546;16.426;2022-12-18T06:02:57;52652.56;;;-146.77;60.54
55410;BME280;41279;43.546;16.426;2022-12-18T06:05:22;52670.59;;;-146.77;59.91
55410;BME280;41279;43.546;16.426;2022-12-18T06:07:47;52686.59;;;-146.77;60.31
55410;BME280;41279;43.546;16.426;2022-12-18T06:10:13;52638.56;;;-146.77;61.28
55410;BME280;41279;43.546;16.426;2022-12-18T06:12:38;52602.50;;;-146.77;62.44
55410;BME280;41279;43.546;16.426;2022-12-18T06:15:04;52594.50;;;-146.77;63.63
55410;BME280;41279;43.546;16.426;2022-12-18T06:17:30;52586.50;;;-146.77;64.83
55410;BME280;41279;43.546;16.426;2022-12-18T06:19:56;52572.47;;;-146.77;68.34
55410;BME280;41279;43.546;16.426;2022-12-18T06:22:22;52596.50;;;-146.77;67.81
55410;BME280;41279;43.546;16.426;2022-12-18T06:24:47;52576.50;;;-146.77;66.95
55410;BME280;41279;43.546;16.426;2022-12-18T06:27:13;52576.50;;;-146.77;67.83
55410;BME280;41279;43.546;16.426;2022-12-18T06:29:39;52568.47;;;-146.77;65.60
55410;BME280;41279;43.546;16.426;2022-12-18T06:32:04;52612.53;;;-146.77;64.32
55410;BME280;41279;43.546;16.426;2022-12-18T06:34:30;52578.50;;;-146.77;65.39
55410;BME280;41279;43.546;16.426;2022-12-18T06:36:57;52544.44;;;-146.77;66.83
55410;BME280;41279;43.546;16.426;2022-12-18T06:39:22;52556.47;;;-146.77;69.12
55410;BME280;41279;43.546;16.426;2022-12-18T06:41:48;52558.47;;;-146.77;69.39
55410;BME280;41279;43.546;16.426;2022-12-18T06:44:13;52538.44;;;-146.77;71.14
55410;BME280;41279;43.546;16.426;2022-12-18T06:46:38;52570.47;;;-146.77;71.18
55410;BME280;41279;43.546;16.426;2022-12-18T06:49:04;52502.41;;;-146.77;70.29
55410;BME280;41279;43.546;16.426;2022-12-18T06:51:29;52570.47;;;-146.77;68.81
55410;BME280;41279;43.546;16.426;2022-12-18T06:53:55;52596.50;;;-146.77;66.58
55410;BME280;41279;43.546;16.426;2022-12-18T06:56:20;52578.50;;;-146.77;68.18
55410;BME280;41279;43.546;16.426;2022-12-18T06:58:45;52562.47;;;-146.77;69.07
55410;BME280;41279;43.546;16.426;2022-12-18T07:01:12;52526.44;;;-146.77;73.80
55410;BME280;41279;43.546;16.426;2022-12-18T07:03:39;52552.47;;;-146.77;76.93
55410;BME280;41279;43.546;16.426;2022-12-18T07:06:21;52554.47;;;-146.77;77.45
55410;BME280;41279;43.546;16.426;2022-12-18T07:08:48;52556.47;;;-146.77;79.04
55410;BME280;41279;43.546;16.426;2022-12-18T07:11:20;52576.50;;;-146.77;71.52
55410;BME280;41279;43.546;16.426;2022-12-18T07:13:52;52574.47;;;-146.77;70.29
55410;BME280;41279;43.546;16.426;2022-12-18T07:16:19;52586.50;;;-146.77;67.78
55410;BME280;41279;43.546;16.426;2022-12-18T07:18:46;52550.47;;;-146.77;67.04
55410;BME280;41279;43.546;16.426;2022-12-18T07:21:14;52570.47;;;-146.77;68.84
55410;BME280;41279;43.546;16.426;2022-12-18T07:23:40;52596.50;;;-146.77;67.53
55410;BME280;41279;43.546;16.426;2022-12-18T07:26:08;52544.44;;;-146.77;68.38
55410;BME280;41279;43.546;16.426;2022-12-18T07:28:34;52586.50;;;-146.77;64.39
55410;BME280;41279;43.546;16.426;2022-12-18T07:31:14;52636.56;;;-146.77;63.34
55410;BME280;41279;43.546;16.426;2022-12-18T07:33:40;52588.50;;;-146.77;63.91
55410;BME280;41279;43.546;16.426;2022-12-18T07:36:06;52662.56;;;-146.77;65.03
55410;BME280;41279;43.546;16.426;2022-12-18T07:38:32;52584.50;;;-146.77;66.33
55410;BME280;41279;43.546;16.426;2022-12-18T07:41:09;52572.47;;;-146.77;67.26
55410;BME280;41279;43.546;16.426;2022-12-18T07:43:35;52608.53;;;-146.77;66.19
55410;BME280;41279;43.546;16.426;2022-12-18T07:46:01;52564.47;;;-146.77;66.73
55410;BME280;41279;43.546;16.426;2022-12-18T07:48:27;52572.47;;;-146.77;66.24
55410;BME280;41279;43.546;16.426;2022-12-18T07:50:53;52536.44;;;-146.77;69.09
55410;BME280;41279;43.546;16.426;2022-12-18T07:53:18;52558.47;;;-146.77;65.57
55410;BME280;41279;43.546;16.426;2022-12-18T07:55:43;52546.47;;;-146.77;66.67
55410;BME280;41279;43.546;16.426;2022-12-18T07:58:09;52574.47;;;-146.77;65.41
55410;BME280;41279;43.546;16.426;2022-12-18T08:00:34;52616.53;;;-146.77;68.72
55410;BME280;41279;43.546;16.426;2022-12-18T08:03:00;52606.53;;;-146.77;68.92
55410;BME280;41279;43.546;16.426;2022-12-18T08:05:27;52594.50;;;-146.77;66.86
55410;BME280;41279;43.546;16.426;2022-12-18T08:07:52;52588.50;;;-146.77;64.20
55410;BME280;41279;43.546;16.426;2022-12-18T08:10:18;52646.56;;;-146.77;61.12
55410;BME280;41279;43.546;16.426;2022-12-18T08:12:44;52614.53;;;-146.77;70.56
55410;BME280;41279;43.546;16.426;2022-12-18T08:15:10;52660.56;;;-146.77;69.35
55410;BME280;41279;43.546;16.426;2022-12-18T08:17:35;52672.59;;;-146.77;67.88
55410;BME280;41279;43.546;16.426;2022-12-18T08:20:01;52638.56;;;-146.77;62.92
55410;BME280;41279;43.546;16.426;2022-12-18T08:22:26;52670.59;;;-146.77;62.48
55410;BME280;41279;43.546;16.426;2022-12-18T08:24:52;52546.47;;;-146.77;63.38
55410;BME280;41279;43.546;16.426;2022-12-18T08:27:17;52544.44;;;-146.77;68.08
55410;BME280;41279;43.546;16.426;2022-12-18T08:29:42;52566.47;;;-146.77;67.35
55410;BME280;41279;43.546;16.426;2022-12-18T08:32:08;52542.44;;;-146.77;69.46
55410;BME280;41279;43.546;16.426;2022-12-18T08:34:33;52556.47;;;-146.77;67.92
55410;BME280;41279;43.546;16.426;2022-12-18T08:36:59;52592.50;;;-146.77;67.87
55410;BME280;41279;43.546;16.426;2022-12-18T08:39:24;52614.53;;;-146.77;64.97
55410;BME280;41279;43.546;16.426;2022-12-18T08:41:49;52612.53;;;-146.77;63.31
55410;BME280;41279;43.546;16.426;2022-12-18T08:44:33;52568.47;;;-146.77;63.94
55410;BME280;41279;43.546;16.426;2022-12-18T08:47:06;52634.53;;;-146.77;65.20
55410;BME280;41279;43.546;16.426;2022-12-18T08:49:32;52650.56;;;-146.77;61.90
55410;BME280;41279;43.546;16.426;2022-12-18T08:51:58;52712.63;;;-146.77;60.53
55410;BME280;41279;43.546;16.426;2022-12-18T08:54:25;52708.63;;;-146.77;59.60
55410;BME280;41279;43.546;16.426;2022-12-18T08:56:51;52674.59;;;-146.77;57.88
55410;BME280;41279;43.546;16.426;2022-12-18T08:59:17;52732.66;;;-146.77;54.73
55410;BME280;41279;43.546;16.426;2022-12-18T09:01:42;52576.50;;;-146.77;62.80
55410;BME280;41279;43.546;16.426;2022-12-18T09:04:09;52598.50;;;-146.77;63.06
55410;BME280;41279;43.546;16.426;2022-12-18T09:06:35;52604.50;;;-146.77;63.74
55410;BME280;41279;43.546;16.426;2022-12-18T09:09:00;52664.59;;;-146.77;61.42
55410;BME280;41279;43.546;16.426;2022-12-18T09:11:27;52630.53;;;-146.77;61.21
55410;BME280;41279;43.546;16.426;2022-12-18T09:13:53;52746.66;;;-146.77;60.20
55410;BME280;41279;43.546;16.426;2022-12-18T09:16:20;52786.72;;;-146.77;57.41
55410;BME280;41279;43.546;16.426;2022-12-18T09:18:46;52760.69;;;-146.77;54.71
55410;BME280;41279;43.546;16.426;2022-12-18T09:21:14;52782.72;;;-146.77;52.06
55410;BME280;41279;43.546;16.426;2022-12-18T09:23:40;52722.66;;;-146.77;51.26
55410;BME280;41279;43.546;16.426;2022-12-18T09:26:05;52726.66;;;-146.77;50.73
55410;BME280;41279;43.546;16.426;2022-12-18T09:28:31;52584.50;;;-146.77;55.90
55410;BME280;41279;43.546;16.426;2022-12-18T09:30:56;52612.53;;;-146.77;59.15
55410;BME280;41279;43.546;16.426;2022-12-18T09:33:21;52610.53;;;-146.77;60.05
55410;BME280;41279;43.546;16.426;2022-12-18T09:35:47;52604.50;;;-146.77;58.59
55410;BME280;41279;43.546;16.426;2022-12-18T09:38:17;52622.53;;;-146.77;60.82
55410;BME280;41279;43.546;16.426;2022-12-18T09:40:47;52680.59;;;-146.77;57.48
55410;BME280;41279;43.546;16.426;2022-12-18T09:43:18;52636.56;;;-146.77;57.61
55410;BME280;41279;43.546;16.426;2022-12-18T09:45:49;52672.59;;;-146.77;57.04
55410;BME280;41279;43.546;16.426;2022-12-18T09:48:23;52594.50;;;-146.77;55.76
55410;BME280;41279;43.546;16.426;2022-12-18T09:50:52;52588.50;;;-146.77;57.08
55410;BME280;41279;43.546;16.426;2022-12-18T09:53:22;52658.56;;;-146.77;55.84
55410;BME280;41279;43.546;16.426;2022-12-18T09:55:51;52670.59;;;-146.77;58.49
55410;BME280;41279;43.546;16.426;2022-12-18T10:00:57;52632.53;;;-146.77;59.09
55410;BME280;41279;43.546;16.426;2022-12-18T10:03:22;52640.56;;;-146.77;59.53
55410;BME280;41279;43.546;16.426;2022-12-18T10:11:01;52614.53;;;-146.77;59.58
55410;BME280;41279;43.546;16.426;2022-12-18T10:13:39;52616.53;;;-146.77;62.51
55410;BME280;41279;43.546;16.426;2022-12-18T10:16:30;52606.53;;;-146.77;61.26
55410;BME280;41279;43.546;16.426;2022-12-18T10:19:16;52656.56;;;-146.77;64.77
55410;BME280;41279;43.546;16.426;2022-12-18T10:22:02;52612.53;;;-146.77;65.63
55410;BME280;41279;43.546;16.426;2022-12-18T10:25:05;52608.53;;;-146.77;65.54
55410;BME280;41279;43.546;16.426;2022-12-18T10:27:32;52650.56;;;-146.77;68.13
55410;BME280;41279;43.546;16.426;2022-12-18T10:29:57;52614.53;;;-146.77;65.00
55410;BME280;41279;43.546;16.426;2022-12-18T10:32:25;52626.53;;;-146.77;63.56
55410;BME280;41279;43.546;16.426;2022-12-18T10:34:56;52638.56;;;-146.77;62.48
55410;BME280;41279;43.546;16.426;2022-12-18T10:37:25;52640.56;;;-146.77;61.61
55410;BME280;41279;43.546;16.426;2022-12-18T10:40:15;52602.50;;;-146.77;61.42
55410;BME280;41279;43.546;16.426;2022-12-18T10:42:41;52666.59;;;-146.77;58.44
55410;BME280;41279;43.546;16.426;2022-12-18T10:45:13;52722.66;;;-146.77;57.93
55410;BME280;41279;43.546;16.426;2022-12-18T10:47:46;52674.59;;;-146.77;54.93
55410;BME280;41279;43.546;16.426;2022-12-18T10:50:27;52708.63;;;-146.77;56.76
55410;BME280;41279;43.546;16.426;2022-12-18T10:52:55;52706.63;;;-146.77;55.74
55410;BME280;41279;43.546;16.426;2022-12-18T10:55:23;52758.69;;;-146.77;52.73
55410;BME280;41279;43.546;16.426;2022-12-18T10:57:51;52714.63;;;-146.77;54.31
55410;BME280;41279;43.546;16.426;2022-12-18T11:00:30;52774.69;;;-146.77;52.15
55410;BME280;41279;43.546;16.426;2022-12-18T11:02:56;52742.66;;;-146.77;51.91
55410;BME280;41279;43.546;16.426;2022-12-18T11:05:32;52702.63;;;-146.77;53.56
55410;BME280;41279;43.546;16.426;2022-12-18T11:07:59;52678.59;;;-146.77;64.88
55410;BME280;41279;43.546;16.426;2022-12-18T11:10:52;52710.63;;;-146.77;67.49
55410;BME280;41279;43.546;16.426;2022-12-18T11:13:20;52726.66;;;-146.77;65.60
55410;BME280;41279;43.546;16.426;2022-12-18T11:15:46;52744.66;;;-146.77;65.87
55410;BME280;41279;43.546;16.426;2022-12-18T11:18:32;52752.69;;;-146.77;67.91
55410;BME280;41279;43.546;16.426;2022-12-18T11:21:07;52684.59;;;-146.77;69.05
55410;BME280;41279;43.546;16.426;2022-12-18T11:23:34;52698.63;;;-146.77;67.39
55410;BME280;41279;43.546;16.426;2022-12-18T11:26:03;52628.53;;;-146.77;71.08
55410;BME280;41279;43.546;16.426;2022-12-18T11:28:39;52690.59;;;-146.77;68.34
55410;BME280;41279;43.546;16.426;2022-12-18T11:31:24;52662.56;;;-146.77;66.83
55410;BME280;41279;43.546;16.426;2022-12-18T11:34:04;52724.66;;;-146.77;65.01
55410;BME280;41279;43.546;16.426;2022-12-18T11:36:45;52710.63;;;-146.77;61.59
55410;BME280;41279;43.546;16.426;2022-12-18T11:44:51;52710.63;;;-146.77;56.33
55410;BME280;41279;43.546;16.426;2022-12-18T11:47:39;52678.59;;;-146.77;51.87
55410;BME280;41279;43.546;16.426;2022-12-18T11:53:12;52726.66;;;-146.77;51.15
55410;BME280;41279;43.546;16.426;2022-12-18T11:58:27;52790.72;;;-146.77;48.15
55410;BME280;41279;43.546;16.426;2022-12-18T12:01:08;52718.63;;;-146.77;50.07
55410;BME280;41279;43.546;16.426;2022-12-18T12:03:51;52694.63;;;-146.77;48.67
55410;BME280;41279;43.546;16.426;2022-12-18T12:11:31;52790.72;;;-146.77;45.90
55410;BME280;41279;43.546;16.426;2022-12-18T12:14:07;52786.72;;;-146.77;46.13
55410;BME280;41279;43.546;16.426;2022-12-18T12:16:45;52748.66;;;-146.77;44.89
55410;BME280;41279;43.546;16.426;2022-12-18T12:19:45;52756.69;;;-146.77;45.46
55410;BME280;41279;43.546;16.426;2022-12-18T12:35:46;52758.69;;;-146.77;42.30
55410;BME280;41279;43.546;16.426;2022-12-18T12:38:21;52714.63;;;-146.77;42.52
55410;BME280;41279;43.546;16.426;2022-12-18T12:40:57;52698.63;;;-146.77;42.98
55410;BME280;41279;43.546;16.426;2022-12-18T12:43:43;52686.59;;;-146.77;43.60
55410;BME280;41279;43.546;16.426;2022-12-18T12:46:11;52708.63;;;-146.77;44.86
55410;BME280;41279;43.546;16.426;2022-12-18T12:48:49;52684.59;;;-146.77;44.57
55410;BME280;41279;43.546;16.426;2022-12-18T12:51:26;52668.59;;;-146.77;46.04
55410;BME280;41279;43.546;16.426;2022-12-18T12:53:54;52666.59;;;-146.77;47.82
55410;BME280;41279;43.546;16.426;2022-12-18T12:56:22;52642.56;;;-146.77;50.36
55410;BME280;41279;43.546;16.426;2022-12-18T13:01:32;52674.59;;;-146.77;48.37
55410;BME280;41279;43.546;16.426;2022-12-18T13:06:42;52694.63;;;-146.77;46.89
55410;BME280;41279;43.546;16.426;2022-12-18T13:09:15;52684.59;;;-146.77;47.18
55410;BME280;41279;43.546;16.426;2022-12-18T13:11:45;52718.63;;;-146.77;47.25
55410;BME280;41279;43.546;16.426;2022-12-18T13:19:42;52664.59;;;-146.77;48.63
55410;BME280;41279;43.546;16.426;2022-12-18T13:22:28;52708.63;;;-146.77;48.39
55410;BME280;41279;43.546;16.426;2022-12-18T13:24:55;52678.59;;;-146.77;47.93
55410;BME280;41279;43.546;16.426;2022-12-18T13:36:09;52726.66;;;-146.77;48.31
55410;BME280;41279;43.546;16.426;2022-12-18T13:38:36;52682.59;;;-146.77;48.80
55410;BME280;41279;43.546;16.426;2022-12-18T13:43:54;52676.59;;;-146.77;49.79
55410;BME280;41279;43.546;16.426;2022-12-18T13:46:30;52690.59;;;-146.77;50.51
55410;BME280;41279;43.546;16.426;2022-12-18T13:51:43;52708.63;;;-146.77;49.99
55410;BME280;41279;43.546;16.426;2022-12-18T13:54:19;52688.59;;;-146.77;52.72
55410;BME280;41279;43.546;16.426;2022-12-18T13:56:48;52712.63;;;-146.77;56.41
55410;BME280;41279;43.546;16.426;2022-12-18T14:01:52;52650.56;;;-146.77;56.07
55410;BME280;41279;43.546;16.426;2022-12-18T14:04:34;52706.63;;;-146.77;49.88
55410;BME280;41279;43.546;16.426;2022-12-18T14:07:27;52708.63;;;-146.77;50.46
55410;BME280;41279;43.546;16.426;2022-12-18T14:09:55;52664.59;;;-146.77;48.26
55410;BME280;41279;43.546;16.426;2022-12-18T14:12:24;52724.66;;;-146.77;47.82